Terminal Aerodrome Forecast
Issued by NWS

Home | Current Version | Previous Version | Text Only | Print | Product List | Glossary On
Versions: 1 2 3 4 5 6 7 8 9 10 11 12 13 14 15 16 17 18 19 20 21 22 23 24 25 26 27 28 29 30 31 32 33
000
FTUS45 KBOU 161457 AAA
TAFBJC
TAF AMD
KBJC 161457Z 1615/1712 36006KT P6SM FEW080
     FM161630 08006KT P6SM FEW080 SCT140
     FM170200 18006KT P6SM SCT120
     FM170500 25006KT P6SM SCT220=

USA.gov is the U.S. government's official web portal to all federal, state and local government web resources and services.